createdAt,value
2022-08-24T00:00:22.460Z,22.20
2022-08-24T00:02:50.416Z,22.20
2022-08-24T00:05:21.086Z,22.10
2022-08-24T00:07:49.607Z,22.00
2022-08-24T00:10:17.719Z,22.00
2022-08-24T00:12:46.873Z,22.00
2022-08-24T00:15:16.031Z,22.00
2022-08-24T00:17:44.752Z,22.10
2022-08-24T00:20:13.203Z,22.00
2022-08-24T00:22:41.505Z,22.00
2022-08-24T00:25:10.341Z,22.00
2022-08-24T00:27:38.091Z,22.00
2022-08-24T00:30:08.798Z,21.90
2022-08-24T00:32:37.726Z,21.90
2022-08-24T00:35:06.225Z,21.80
2022-08-24T00:37:34.207Z,21.80
2022-08-24T00:40:02.088Z,21.80
2022-08-24T00:42:29.833Z,21.70
2022-08-24T00:44:58.450Z,21.60
2022-08-24T00:47:31.542Z,21.70
2022-08-24T00:50:00.470Z,21.70
2022-08-24T00:52:30.088Z,21.60
2022-08-24T00:55:00.580Z,21.60
2022-08-24T00:57:30.042Z,21.50
2022-08-24T00:59:59.823Z,21.50
2022-08-24T01:02:36.445Z,21.50
2022-08-24T01:05:06.737Z,21.40
2022-08-24T01:07:35.602Z,21.40
2022-08-24T01:10:05.774Z,21.40
2022-08-24T01:12:35.452Z,21.40
2022-08-24T01:15:05.619Z,21.30
2022-08-24T01:17:52.415Z,21.30
2022-08-24T01:20:20.855Z,21.30
2022-08-24T01:22:53.477Z,21.30
2022-08-24T01:25:23.559Z,21.30
2022-08-24T01:27:51.856Z,21.30
2022-08-24T01:30:22.339Z,21.30
2022-08-24T01:32:59.212Z,21.30
2022-08-24T01:35:27.473Z,21.20
2022-08-24T01:37:56.017Z,21.20
2022-08-24T01:40:28.354Z,21.10
2022-08-24T01:42:56.171Z,21.10
2022-08-24T01:45:23.916Z,21.10
2022-08-24T01:47:51.659Z,21.00
2022-08-24T01:50:19.395Z,21.00
2022-08-24T01:53:04.345Z,21.00
2022-08-24T01:55:34.618Z,21.00
2022-08-24T01:58:02.606Z,21.00
2022-08-24T02:00:30.800Z,20.90
2022-08-24T02:02:58.998Z,20.90
2022-08-24T02:05:27.004Z,20.80
2022-08-24T02:07:54.730Z,20.80
2022-08-24T02:10:22.556Z,20.80
2022-08-24T02:12:57.986Z,20.80
2022-08-24T02:15:27.730Z,20.80
2022-08-24T02:17:55.660Z,20.80
2022-08-24T02:20:23.682Z,20.70
2022-08-24T02:22:52.226Z,20.70
2022-08-24T02:25:20.446Z,20.80
2022-08-24T02:27:48.308Z,20.70
2022-08-24T02:30:18.165Z,20.80
2022-08-24T02:32:47.114Z,20.90
2022-08-24T02:35:14.908Z,20.80
2022-08-24T02:37:43.560Z,20.70
2022-08-24T02:40:12.524Z,20.70
2022-08-24T02:42:40.481Z,20.60
2022-08-24T02:45:09.148Z,20.60
2022-08-24T02:47:39.388Z,20.50
2022-08-24T02:50:10.330Z,20.50
2022-08-24T02:52:39.376Z,20.50
2022-08-24T02:55:08.038Z,20.50
2022-08-24T02:57:35.819Z,20.50
2022-08-24T03:00:10.262Z,20.50
2022-08-24T03:02:40.290Z,20.40
2022-08-24T03:05:08.875Z,20.50
2022-08-24T03:07:37.025Z,20.50
2022-08-24T03:10:05.637Z,20.50
2022-08-24T03:12:34.615Z,20.40
2022-08-24T03:15:03.052Z,20.50
2022-08-24T03:17:31.490Z,20.40
2022-08-24T03:20:01.513Z,20.50
2022-08-24T03:22:29.354Z,20.50
2022-08-24T03:24:57.698Z,20.50
2022-08-24T03:27:25.479Z,20.40
2022-08-24T03:29:53.177Z,20.40
2022-08-24T03:32:22.510Z,20.30
2022-08-24T03:34:50.329Z,20.30
2022-08-24T03:37:20.075Z,20.30
2022-08-24T03:39:49.858Z,20.30
2022-08-24T03:42:17.752Z,20.30
2022-08-24T03:44:45.480Z,20.30
2022-08-24T03:47:13.377Z,20.30
2022-08-24T03:49:41.359Z,20.20
2022-08-24T03:52:09.202Z,20.20
2022-08-24T03:54:38.376Z,20.20
2022-08-24T03:57:06.187Z,20.20
2022-08-24T03:59:33.937Z,20.10
2022-08-24T04:02:07.325Z,20.10
2022-08-24T04:04:37.988Z,20.10
2022-08-24T04:07:06.162Z,20.00
2022-08-24T04:09:33.996Z,20.10
2022-08-24T04:12:03.103Z,20.00
2022-08-24T04:14:30.855Z,20.00
2022-08-24T04:16:58.633Z,20.10
2022-08-24T04:19:26.423Z,20.20
2022-08-24T04:21:56.402Z,20.20
2022-08-24T04:24:24.198Z,20.10
2022-08-24T04:26:51.962Z,20.10
2022-08-24T04:29:21.471Z,20.10
2022-08-24T04:31:49.367Z,20.00
2022-08-24T04:34:18.345Z,19.90
2022-08-24T04:36:46.792Z,19.90
2022-08-24T04:39:15.169Z,19.80
2022-08-24T04:41:42.972Z,19.90
2022-08-24T04:44:12.137Z,19.90
2022-08-24T04:46:41.226Z,19.90
2022-08-24T04:49:09.415Z,19.90
2022-08-24T04:51:37.173Z,19.90
2022-08-24T04:54:05.399Z,19.90
2022-08-24T04:56:33.195Z,19.90
2022-08-24T04:59:01.128Z,19.90
2022-08-24T05:01:30.342Z,20.00
2022-08-24T05:03:59.668Z,20.00
2022-08-24T05:06:29.404Z,20.10
2022-08-24T05:08:57.861Z,20.10
2022-08-24T05:11:26.790Z,20.20
2022-08-24T05:13:54.889Z,20.20
2022-08-24T05:16:23.521Z,20.30
2022-08-24T05:18:51.403Z,20.40
2022-08-24T05:21:21.489Z,20.40
2022-08-24T05:23:49.666Z,20.50
2022-08-24T05:26:18.443Z,20.50
2022-08-24T05:28:46.434Z,20.60
2022-08-24T05:31:15.363Z,20.60
2022-08-24T05:33:43.494Z,20.60
2022-08-24T05:36:16.580Z,20.70
2022-08-24T05:38:45.772Z,20.70
2022-08-24T05:41:13.821Z,20.70
2022-08-24T05:43:41.938Z,20.80
2022-08-24T05:46:09.685Z,20.80
2022-08-24T05:48:38.182Z,20.90
2022-08-24T05:51:06.755Z,21.00
2022-08-24T05:53:34.577Z,21.10
2022-08-24T05:56:04.994Z,21.20
2022-08-24T05:58:32.761Z,21.20
2022-08-24T06:01:00.864Z,21.20
2022-08-24T06:03:28.927Z,21.20
2022-08-24T06:05:56.691Z,21.10
2022-08-24T06:08:24.841Z,21.20
2022-08-24T06:10:52.553Z,21.10
2022-08-24T06:13:21.651Z,21.20
2022-08-24T06:16:10.926Z,21.20
2022-08-24T06:18:37.759Z,21.20
2022-08-24T06:21:06.837Z,21.30
2022-08-24T06:23:34.726Z,21.40
2022-08-24T06:26:23.049Z,21.50
2022-08-24T06:28:53.321Z,21.60
2022-08-24T06:31:22.325Z,21.70
2022-08-24T06:33:52.729Z,21.80
2022-08-24T06:36:22.676Z,21.90
2022-08-24T06:38:51.079Z,22.00
2022-08-24T06:41:20.605Z,22.00
2022-08-24T06:43:48.606Z,22.10
2022-08-24T06:46:20.886Z,22.30
2022-08-24T06:48:52.883Z,22.30
2022-08-24T06:51:22.881Z,22.30
2022-08-24T06:53:51.473Z,22.30
2022-08-24T06:56:19.679Z,22.30
2022-08-24T06:58:48.103Z,22.40
2022-08-24T07:01:17.368Z,22.50
2022-08-24T07:03:46.983Z,22.50
2022-08-24T07:06:15.222Z,22.60
2022-08-24T07:08:43.594Z,22.60
2022-08-24T07:11:12.245Z,22.60
2022-08-24T07:13:40.250Z,22.70
2022-08-24T07:16:09.991Z,22.70
2022-08-24T07:18:38.129Z,22.80
2022-08-24T07:21:10.797Z,22.90
2022-08-24T07:23:41.964Z,23.00
2022-08-24T07:26:17.207Z,23.10
2022-08-24T07:28:49.722Z,23.30
2022-08-24T07:31:17.735Z,23.30
2022-08-24T07:33:45.907Z,23.40
2022-08-24T07:36:22.742Z,23.50
2022-08-24T07:38:52.828Z,23.60
2022-08-24T07:41:40.306Z,23.60
2022-08-24T07:44:09.572Z,23.70
2022-08-24T07:46:38.046Z,23.80
2022-08-24T07:49:12.634Z,23.80
2022-08-24T07:51:49.158Z,23.80
2022-08-24T07:54:17.271Z,23.80
2022-08-24T07:56:45.275Z,23.70
2022-08-24T07:59:13.757Z,23.70
2022-08-24T08:01:42.341Z,23.90
2022-08-24T08:04:10.531Z,23.90
2022-08-24T08:06:38.763Z,24.00
2022-08-24T08:09:08.117Z,24.20
2022-08-24T08:11:36.288Z,24.30
2022-08-24T08:14:04.269Z,24.30
2022-08-24T08:16:32.428Z,24.30
2022-08-24T08:19:09.773Z,24.50
2022-08-24T08:22:00.121Z,24.60
2022-08-24T08:24:29.723Z,24.80
2022-08-24T08:26:59.365Z,25.00
2022-08-24T08:29:27.767Z,25.20
2022-08-24T08:31:55.952Z,25.40
2022-08-24T08:34:24.398Z,25.60
2022-08-24T08:36:52.748Z,25.90
2022-08-24T08:39:22.351Z,26.20
2022-08-24T08:42:22.097Z,26.50
2022-08-24T08:44:53.997Z,26.60
2022-08-24T08:47:33.906Z,26.60
2022-08-24T08:50:07.260Z,26.60
2022-08-24T08:52:53.905Z,26.90
2022-08-24T08:55:25.110Z,27.00
2022-08-24T08:58:07.622Z,26.80
2022-08-24T09:00:45.558Z,26.90
2022-08-24T09:03:23.897Z,27.00
2022-08-24T09:06:10.385Z,27.40
2022-08-24T09:08:52.248Z,27.70
2022-08-24T09:11:24.761Z,27.90
2022-08-24T09:14:04.874Z,28.10
2022-08-24T09:16:40.574Z,28.30
2022-08-24T09:19:16.113Z,28.50
2022-08-24T09:21:49.804Z,28.70
2022-08-24T09:24:31.199Z,29.10
2022-08-24T09:27:06.473Z,29.20
2022-08-24T09:29:42.906Z,29.40
2022-08-24T09:32:24.946Z,29.50
2022-08-24T09:34:57.142Z,29.60
2022-08-24T09:37:31.912Z,29.90
2022-08-24T09:40:02.107Z,30.10
2022-08-24T09:42:45.879Z,30.20
2022-08-24T09:45:42.518Z,30.40
2022-08-24T09:48:17.609Z,30.80
2022-08-24T09:51:13.101Z,30.80
2022-08-24T09:53:48.911Z,30.90
2022-08-24T09:56:26.169Z,30.80
2022-08-24T09:59:02.445Z,30.80
2022-08-24T10:01:34.883Z,31.00
2022-08-24T10:04:11.265Z,30.90
2022-08-24T10:06:46.788Z,30.50
2022-08-24T10:09:27.400Z,30.50
2022-08-24T10:12:00.011Z,30.60
2022-08-24T10:14:36.597Z,30.50
2022-08-24T10:17:11.297Z,30.50
2022-08-24T10:19:46.974Z,30.80
2022-08-24T10:22:18.851Z,31.00
2022-08-24T10:25:03.922Z,31.20
2022-08-24T10:27:40.737Z,31.40
2022-08-24T10:30:25.977Z,31.70
2022-08-24T10:33:07.135Z,31.70
2022-08-24T10:35:37.116Z,31.80
2022-08-24T10:38:49.753Z,32.00
2022-08-24T10:41:29.667Z,32.20
2022-08-24T10:44:11.850Z,32.40
2022-08-24T10:46:50.003Z,32.80
2022-08-24T10:49:36.753Z,32.90
2022-08-24T10:52:14.121Z,33.00
2022-08-24T10:54:42.619Z,33.30
2022-08-24T10:57:19.107Z,33.70
2022-08-24T10:59:53.173Z,33.50
2022-08-24T11:02:30.727Z,33.80
2022-08-24T11:04:59.636Z,33.90
2022-08-24T11:07:29.438Z,33.90
2022-08-24T11:09:59.963Z,34.10
2022-08-24T11:12:31.585Z,34.40
2022-08-24T11:15:00.389Z,34.30
2022-08-24T11:17:30.073Z,34.30
2022-08-24T11:19:59.287Z,34.40
2022-08-24T11:22:33.385Z,34.70
2022-08-24T11:25:03.057Z,34.80
2022-08-24T11:27:32.284Z,34.60
2022-08-24T11:30:07.216Z,34.90
2022-08-24T11:32:39.176Z,35.00
2022-08-24T11:35:10.684Z,34.60
2022-08-24T11:37:40.158Z,34.40
2022-08-24T11:40:09.040Z,34.30
2022-08-24T11:42:41.828Z,34.30
2022-08-24T11:45:13.740Z,34.40
2022-08-24T11:47:48.381Z,34.20
2022-08-24T11:50:20.708Z,34.00
2022-08-24T11:52:53.839Z,34.30
2022-08-24T11:55:25.224Z,34.70
2022-08-24T11:57:56.364Z,35.10
2022-08-24T12:00:26.901Z,35.20
2022-08-24T12:02:59.067Z,35.20
2022-08-24T12:05:30.535Z,35.30
2022-08-24T12:08:06.809Z,35.30
2022-08-24T12:10:41.453Z,35.20
2022-08-24T12:13:11.821Z,35.10
2022-08-24T12:15:44.705Z,35.40
2022-08-24T12:18:21.427Z,35.50
2022-08-24T12:20:50.256Z,35.60
2022-08-24T12:23:21.865Z,36.00
2022-08-24T12:26:02.905Z,36.20
2022-08-24T12:28:33.273Z,36.00
2022-08-24T12:31:04.478Z,35.80
2022-08-24T12:33:37.463Z,35.60
2022-08-24T12:36:09.925Z,35.60
2022-08-24T12:38:41.097Z,35.90
2022-08-24T12:41:19.011Z,36.00
2022-08-24T12:43:50.683Z,36.00
2022-08-24T12:46:22.304Z,35.90
2022-08-24T12:48:55.104Z,35.90
2022-08-24T12:51:26.935Z,36.20
2022-08-24T12:54:02.614Z,36.50
2022-08-24T12:56:37.038Z,36.50
2022-08-24T12:59:08.624Z,36.60
2022-08-24T13:01:38.550Z,36.70
2022-08-24T13:04:08.918Z,36.20
2022-08-24T13:06:42.257Z,35.90
2022-08-24T13:09:14.836Z,35.80
2022-08-24T13:11:43.086Z,36.00
2022-08-24T13:14:19.509Z,35.70
2022-08-24T13:16:49.086Z,35.90
2022-08-24T13:19:18.789Z,36.40
2022-08-24T13:21:54.351Z,36.60
2022-08-24T13:24:50.252Z,36.80
2022-08-24T13:27:48.568Z,36.70
2022-08-24T13:30:31.870Z,36.80
2022-08-24T13:33:03.306Z,36.60
2022-08-24T13:35:34.999Z,36.20
2022-08-24T13:38:21.689Z,36.20
2022-08-24T13:40:51.265Z,36.00
2022-08-24T13:43:21.067Z,35.90
2022-08-24T13:45:52.347Z,36.30
2022-08-24T13:48:32.794Z,37.10
2022-08-24T13:51:17.198Z,37.90
2022-08-24T13:54:08.626Z,38.60
2022-08-24T13:56:55.454Z,38.60
2022-08-24T13:59:39.692Z,38.70
2022-08-24T14:02:13.696Z,38.70
2022-08-24T14:04:45.861Z,38.70
2022-08-24T14:07:16.105Z,38.00
2022-08-24T14:09:47.223Z,38.10
2022-08-24T14:12:19.853Z,38.40
2022-08-24T14:15:04.112Z,38.70
2022-08-24T14:17:55.466Z,39.00
2022-08-24T14:20:43.096Z,39.10
2022-08-24T14:23:21.654Z,38.90
2022-08-24T14:25:51.509Z,38.40
2022-08-24T14:28:34.978Z,38.20
2022-08-24T14:31:17.435Z,38.30
2022-08-24T14:33:51.958Z,38.30
2022-08-24T14:36:21.303Z,38.10
2022-08-24T14:39:07.557Z,37.60
2022-08-24T14:41:46.018Z,37.60
2022-08-24T14:44:29.111Z,37.50
2022-08-24T14:47:01.222Z,37.90
2022-08-24T14:49:35.636Z,38.10
2022-08-24T14:52:08.161Z,37.70
2022-08-24T14:54:41.002Z,37.50
2022-08-24T14:57:22.909Z,37.00
2022-08-24T14:59:56.456Z,36.60
2022-08-24T15:02:48.463Z,36.70
2022-08-24T15:05:22.928Z,36.50
2022-08-24T15:07:54.120Z,36.40
2022-08-24T15:10:25.093Z,36.70
2022-08-24T15:12:59.035Z,36.90
2022-08-24T15:15:33.925Z,36.90
2022-08-24T15:18:06.735Z,36.80
2022-08-24T15:20:45.384Z,36.90
2022-08-24T15:23:17.706Z,37.20
2022-08-24T15:25:48.150Z,36.80
2022-08-24T15:28:23.197Z,36.30
2022-08-24T15:30:54.570Z,36.20
2022-08-24T15:33:22.526Z,36.00
2022-08-24T15:35:52.826Z,35.50
2022-08-24T15:38:22.304Z,35.20
2022-08-24T15:40:51.201Z,35.30
2022-08-24T15:43:19.460Z,35.40
2022-08-24T15:45:48.638Z,35.00
2022-08-24T15:48:18.230Z,34.90
2022-08-24T15:50:47.420Z,34.90
2022-08-24T15:53:30.119Z,34.60
2022-08-24T15:55:59.831Z,34.60
2022-08-24T15:58:32.860Z,34.90
2022-08-24T16:01:19.053Z,34.70
2022-08-24T16:03:49.899Z,34.40
2022-08-24T16:06:24.023Z,34.20
2022-08-24T16:09:02.255Z,34.10
2022-08-24T16:11:35.872Z,34.00
2022-08-24T16:14:04.067Z,34.00
2022-08-24T16:16:33.847Z,34.20
2022-08-24T16:19:08.367Z,33.90
2022-08-24T16:21:38.728Z,33.70
2022-08-24T16:24:09.934Z,33.50
2022-08-24T16:26:56.883Z,33.40
2022-08-24T16:29:44.721Z,33.50
2022-08-24T16:32:22.501Z,33.20
2022-08-24T16:34:55.799Z,33.10
2022-08-24T16:37:25.243Z,32.70
2022-08-24T16:39:53.101Z,32.60
2022-08-24T16:42:24.260Z,32.40
2022-08-24T16:44:52.676Z,32.20
2022-08-24T16:47:21.103Z,32.10
2022-08-24T16:49:49.880Z,32.10
2022-08-24T16:52:17.707Z,31.90
2022-08-24T16:54:46.078Z,32.00
2022-08-24T16:57:14.879Z,31.90
2022-08-24T16:59:45.309Z,31.80
2022-08-24T17:02:13.975Z,31.60
2022-08-24T17:04:42.603Z,31.50
2022-08-24T17:07:12.909Z,31.50
2022-08-24T17:09:43.404Z,31.50
2022-08-24T17:12:11.362Z,31.40
2022-08-24T17:14:39.654Z,31.30
2022-08-24T17:17:10.607Z,31.20
2022-08-24T17:19:38.955Z,31.20
2022-08-24T17:22:15.584Z,31.00
2022-08-24T17:24:44.247Z,30.90
2022-08-24T17:27:13.028Z,30.80
2022-08-24T17:29:41.219Z,30.80
2022-08-24T17:32:10.541Z,30.80
2022-08-24T17:34:38.769Z,30.80
2022-08-24T17:37:07.672Z,30.70
2022-08-24T17:39:35.661Z,30.60
2022-08-24T17:42:03.626Z,30.60
2022-08-24T17:44:33.375Z,30.60
2022-08-24T17:47:02.517Z,30.50
2022-08-24T17:49:32.857Z,30.50
2022-08-24T17:52:00.847Z,30.40
2022-08-24T17:54:29.133Z,30.30
2022-08-24T17:56:57.299Z,30.20
2022-08-24T17:59:28.943Z,30.10
2022-08-24T18:01:58.710Z,30.10
2022-08-24T18:04:28.208Z,30.10
2022-08-24T18:06:58.211Z,30.10
2022-08-24T18:09:28.874Z,30.10
2022-08-24T18:11:57.551Z,30.00
2022-08-24T18:14:25.492Z,29.90
2022-08-24T18:16:54.327Z,29.80
2022-08-24T18:19:25.860Z,29.70
2022-08-24T18:21:53.715Z,29.70
2022-08-24T18:24:22.973Z,29.60
2022-08-24T18:26:50.852Z,29.40
2022-08-24T18:29:20.907Z,29.50
2022-08-24T18:31:49.131Z,29.40
2022-08-24T18:34:18.222Z,29.40
2022-08-24T18:36:46.835Z,29.30
2022-08-24T18:39:14.975Z,29.30
2022-08-24T18:41:49.218Z,29.30
2022-08-24T18:44:18.425Z,29.20
2022-08-24T18:46:46.218Z,29.10
2022-08-24T18:49:14.031Z,29.00
2022-08-24T18:51:42.100Z,28.90
2022-08-24T18:54:11.450Z,28.70
2022-08-24T18:56:39.523Z,28.60
2022-08-24T18:59:09.107Z,28.50
2022-08-24T19:01:57.089Z,28.50
2022-08-24T19:04:25.858Z,28.40
2022-08-24T19:07:01.291Z,28.30
2022-08-24T19:09:33.975Z,28.20
2022-08-24T19:12:02.539Z,28.00
2022-08-24T19:14:31.708Z,27.90
2022-08-24T19:16:59.423Z,27.70
2022-08-24T19:19:27.279Z,27.60
2022-08-24T19:21:55.259Z,27.50
2022-08-24T19:24:25.189Z,27.40
2022-08-24T19:26:53.227Z,27.30
2022-08-24T19:29:38.844Z,27.30
2022-08-24T19:32:09.938Z,27.30
2022-08-24T19:34:41.602Z,27.20
2022-08-24T19:37:10.454Z,27.10
2022-08-24T19:39:38.219Z,27.00
2022-08-24T19:42:06.407Z,26.90
2022-08-24T19:44:55.522Z,26.90
2022-08-24T19:47:25.239Z,26.70
2022-08-24T19:49:52.944Z,26.70
2022-08-24T19:52:21.376Z,26.70
2022-08-24T19:54:50.094Z,26.50
2022-08-24T19:57:30.397Z,26.50
2022-08-24T19:59:59.743Z,26.40
2022-08-24T20:02:28.896Z,26.40
2022-08-24T20:04:56.705Z,26.30
2022-08-24T20:07:24.411Z,26.20
2022-08-24T20:09:52.134Z,26.10
2022-08-24T20:12:20.188Z,26.00
2022-08-24T20:14:48.007Z,25.90
2022-08-24T20:17:15.761Z,25.90
2022-08-24T20:19:45.385Z,25.90
2022-08-24T20:22:13.814Z,25.80
2022-08-24T20:24:42.540Z,25.80
2022-08-24T20:27:11.989Z,25.80
2022-08-24T20:29:39.730Z,25.80
2022-08-24T20:32:07.540Z,25.80
2022-08-24T20:34:38.333Z,25.80
2022-08-24T20:37:07.702Z,25.80
2022-08-24T20:39:35.498Z,25.80
2022-08-24T20:42:03.262Z,25.80
2022-08-24T20:44:31.261Z,25.70
2022-08-24T20:46:59.159Z,25.70
2022-08-24T20:49:27.597Z,25.70
2022-08-24T20:51:55.542Z,25.60
2022-08-24T20:54:24.621Z,25.50
2022-08-24T20:56:52.467Z,25.40
2022-08-24T20:59:20.577Z,25.40
2022-08-24T21:01:49.211Z,25.30
2022-08-24T21:04:17.036Z,25.30
2022-08-24T21:06:45.144Z,25.20
2022-08-24T21:09:14.312Z,25.20
2022-08-24T21:11:46.100Z,25.20
2022-08-24T21:14:13.836Z,25.20
2022-08-24T21:16:43.340Z,25.10
2022-08-24T21:19:15.051Z,25.10
2022-08-24T21:21:42.806Z,25.10
2022-08-24T21:24:11.060Z,25.10
2022-08-24T21:26:39.346Z,25.00
2022-08-24T21:29:09.355Z,25.00
2022-08-24T21:31:37.650Z,25.00
2022-08-24T21:34:22.834Z,25.00
2022-08-24T21:36:52.633Z,25.00
2022-08-24T21:39:22.347Z,25.00
2022-08-24T21:41:50.056Z,25.00
2022-08-24T21:44:19.143Z,24.90
2022-08-24T21:46:46.916Z,24.90
2022-08-24T21:49:14.779Z,24.90
2022-08-24T21:51:42.486Z,24.90
2022-08-24T21:54:10.753Z,24.90
2022-08-24T21:56:39.147Z,24.90
2022-08-24T21:59:07.163Z,24.80
2022-08-24T22:01:37.336Z,24.70
2022-08-24T22:04:05.202Z,24.70
2022-08-24T22:06:33.475Z,24.70
2022-08-24T22:09:01.722Z,24.70
2022-08-24T22:11:29.898Z,24.70
2022-08-24T22:13:58.125Z,24.60
2022-08-24T22:16:26.500Z,24.70
2022-08-24T22:18:56.575Z,24.70
2022-08-24T22:21:29.319Z,24.80
2022-08-24T22:23:57.265Z,24.70
2022-08-24T22:26:25.372Z,24.70
2022-08-24T22:28:54.136Z,24.70
2022-08-24T22:31:22.962Z,24.60
2022-08-24T22:33:50.811Z,24.60
2022-08-24T22:36:19.913Z,24.60
2022-08-24T22:38:47.760Z,24.50
2022-08-24T22:41:16.007Z,24.40
2022-08-24T22:44:01.766Z,24.30
2022-08-24T22:46:29.737Z,24.20
2022-08-24T22:48:57.497Z,24.20
2022-08-24T22:51:26.644Z,24.30
2022-08-24T22:53:54.419Z,24.20
2022-08-24T22:56:23.017Z,24.30
2022-08-24T22:58:51.247Z,24.20
2022-08-24T23:01:19.778Z,24.10
2022-08-24T23:03:49.699Z,24.00
2022-08-24T23:06:17.931Z,24.00
2022-08-24T23:08:47.048Z,23.90
2022-08-24T23:11:14.864Z,23.90
2022-08-24T23:13:42.624Z,23.90
2022-08-24T23:16:11.100Z,23.90
2022-08-24T23:18:56.959Z,23.70
2022-08-24T23:21:25.299Z,23.60
2022-08-24T23:23:56.758Z,23.50
2022-08-24T23:26:24.532Z,23.50
2022-08-24T23:28:52.424Z,23.40
2022-08-24T23:31:21.966Z,23.40
2022-08-24T23:33:49.704Z,23.30
2022-08-24T23:36:20.904Z,23.20
2022-08-24T23:38:49.174Z,23.10
2022-08-24T23:41:18.985Z,23.00
2022-08-24T23:43:47.404Z,23.00
2022-08-24T23:46:15.232Z,23.00
2022-08-24T23:48:43.115Z,23.00
2022-08-24T23:51:19.918Z,22.90
2022-08-24T23:53:48.348Z,22.90
2022-08-24T23:56:17.930Z,22.90
2022-08-24T23:58:49.982Z,22.80
